17 maja 2022

Czas Kod Pogoda Temp. Widoczność Chmury Wiatr METAR/SPECI
05:50
V
12 °C 10 km+ - Var   Var 1 kt METAR EDWE 170350Z AUTO VRB01KT 9999 // SCT046/// 12/11 Q1018
05:20
V
13 °C 10 km+ - 250°   250° 3 kt METAR EDWE 170320Z AUTO 25003KT 9999 // SCT045/// 13/12 Q1018
04:50
V
13 °C 10 km+ - 250°   250° 5 kt METAR EDWE 170250Z AUTO 25005KT 9999 // SCT044/// 13/12 Q1018
04:20
V
14 °C 10 km+ - 240°   240° 7 kt METAR EDWE 170220Z AUTO 24007KT 9999 // FEW045/// 14/12 Q1018
03:50
V
14 °C 10 km+ - 230°   230° 6 kt METAR EDWE 170150Z AUTO 23006KT 9999 // NCD 14/13 Q1018
03:20
V
15 °C 10 km+ - 230°   230° 4 kt METAR EDWE 170120Z AUTO 23004KT 9999 // NCD 15/13 Q1018
02:50
V
15 °C 10 km+ 3.300 ft 240°   240° 5 kt METAR EDWE 170050Z AUTO 24005KT 9999 // BKN033/// 15/13 Q1018
02:20
V
15 °C 10 km+ 3.500 ft 240°   240° 3 kt METAR EDWE 170020Z AUTO 24003KT 9999 // BKN035/// 15/14 Q1018
01:50
V
15 °C 10 km+ 5.000 ft 260°   260° 4 kt METAR EDWE 162350Z AUTO 26004KT 9999 // SCT032/// BKN050/// BKN066/// 15/14 Q1018
01:20
M
15 °C 10 km+ 2.600 ft 270°   270° 3 kt METAR EDWE 162320Z AUTO 27003KT 9999 // SCT021/// BKN026/// 15/14 Q1018
00:50
M
16 °C 10 km+ 2.200 ft 260°   260° 4 kt METAR EDWE 162250Z AUTO 26004KT 9999 // OVC022/// 16/14 Q1018
00:20
M
16 °C 10 km+ 2.400 ft 250°   250° 5 kt METAR EDWE 162220Z AUTO 25005KT 9999 // OVC024/// 16/14 Q1018

16 maja 2022

Czas Kod Pogoda Temp. Widoczność Chmury Wiatr METAR/SPECI
23:50
M
16 °C 8 km 2.300 ft 250°   250° 4 kt METAR EDWE 162150Z AUTO 25004KT 8000 // BKN023/// OVC029/// 16/15 Q1018
23:20
M
16 °C 8 km 2.800 ft 220°   220° 5 kt METAR EDWE 162120Z AUTO 22005KT 8000 // FEW019/// BKN028/// 16/15 Q1017
22:50
M
16 °C 6 km 1.900 ft 190°   190° 4 kt METAR EDWE 162050Z AUTO 19004KT 160V240 6000 // BKN019/// OVC029/// 16/15 Q1017
22:20
M
16 °C 6 km 1.900 ft 190°   190° 3 kt METAR EDWE 162020Z AUTO 19003KT 150V220 6000 // BKN019/// OVC067/// 16/15 Q1017
21:50
M
16 °C 5 km 5.600 ft 220°   220° 5 kt METAR EDWE 161950Z AUTO 22005KT 190V250 5000 // FEW033/// OVC056/// 16/15 Q1017
21:20
I
16 °C 4,6 km 4.200 ft 240°   240° 7 kt METAR EDWE 161920Z AUTO 24007KT 4600 // FEW014/// SCT021/// OVC042/// 16/15 Q1017
20:50
M
17 °C 10 km+ 1.800 ft 240°   240° 9 kt METAR EDWE 161850Z AUTO 24009KT 9999 // FEW016/// OVC018/// 17/15 Q1016
06:20
V
11 °C 10 km+ - 100°   100° 9 kt METAR EDWE 160420Z AUTO 10009KT 9999 // NCD 11/07 Q1016
05:50
V
11 °C 10 km+ - 090°   090° 9 kt METAR EDWE 160350Z AUTO 09009KT 9999 // NCD 11/07 Q1016
05:20
V
11 °C 10 km+ - 090°   090° 7 kt METAR EDWE 160320Z AUTO 09007KT 9999 // NCD 11/06 Q1016
04:50
V
11 °C 10 km+ - 080°   080° 6 kt METAR EDWE 160250Z AUTO 08006KT 9999 // NCD 11/06 Q1016
04:20
V
11 °C 10 km+ - 080°   080° 6 kt METAR EDWE 160220Z AUTO 08006KT 9999 // NCD 11/07 Q1017
03:50
V
11 °C 10 km+ - 080°   080° 5 kt METAR EDWE 160150Z AUTO 08005KT 9999 // NCD 11/07 Q1017
03:20
V
12 °C 10 km+ - 080°   080° 6 kt METAR EDWE 160120Z AUTO 08006KT 9999 // NCD 12/07 Q1017
02:50
V
12 °C 10 km+ - 070°   070° 7 kt METAR EDWE 160050Z AUTO 07007KT 9999 // NCD 12/08 Q1017
02:20
V
12 °C 10 km+ - 070°   070° 7 kt METAR EDWE 160020Z AUTO 07007KT 9999 // NCD 12/09 Q1017
01:50
V
12 °C 10 km+ - 070°   070° 7 kt METAR EDWE 152350Z AUTO 07007KT 9999 // SCT200/// 12/09 Q1018
01:20
V
12 °C 10 km+ - 070°   070° 7 kt METAR EDWE 152320Z AUTO 07007KT 9999 // FEW210/// 12/10 Q1018
00:50
V
11 °C 10 km+ - 060°   060° 4 kt METAR EDWE 152250Z AUTO 06004KT 9999 // FEW210/// 11/09 Q1018
00:20
V
12 °C 10 km+ - 060°   060° 5 kt METAR EDWE 152220Z AUTO 06005KT 9999 // NCD 12/10 Q1018

15 maja 2022

Czas Kod Pogoda Temp. Widoczność Chmury Wiatr METAR/SPECI
23:50
V
12 °C 10 km+ - 060°   060° 6 kt METAR EDWE 152150Z AUTO 06006KT 9999 // NCD 12/10 Q1018
23:20
V
12 °C 10 km+ - 050°   050° 6 kt METAR EDWE 152120Z AUTO 05006KT 9999 // NCD 12/10 Q1018
22:50
V
12 °C 10 km+ - 060°   060° 6 kt METAR EDWE 152050Z AUTO 06006KT 9999 // NCD 12/10 Q1018
22:20
V
13 °C 10 km+ - 050°   050° 7 kt METAR EDWE 152020Z AUTO 05007KT 9999 // NCD 13/10 Q1019
21:50
V
13 °C 10 km+ - 050°   050° 9 kt METAR EDWE 151950Z AUTO 05009KT 9999 // FEW240/// 13/10 Q1018
21:20
V
14 °C 10 km+ - 050°   050° 8 kt METAR EDWE 151920Z AUTO 05008KT 9999 // NCD 14/09 Q1018
20:50
V
14 °C 10 km+ - 040°   040° 11 kt METAR EDWE 151850Z AUTO 04011KT 9999 // NCD 14/10 Q1019
Starsze dane

Pobierz naszą aplikację

Łatwy dostęp do całej pogody lotniczej na telefonie komórkowym i tablecie.
Z wieloma funkcjami niedostępnymi na stronie internetowej, takimi jak wsparcie offline i osobista lista lotnisk.